Buxhai — 9HA3289 — position and weather

sailwx.info

Track history (hours):
 
Tides and Currents Weather Stations Pressure Air Temp Water Temp Dewpoint Dewpoint Depression Visibility Wind Speed Wind Dir Waves Ship Positions

Buxhai

Last reported at 2017-Oct-22 21:00 UTC. Time now 2017-Oct-22 21:18 UTC.
Position N 51°58' E 004°04'.

Length 282 m; draft 9.8 m.

Type: Ship (hazmat cat A). MMSI: 229384000.

Date/timePositionNaut miles runAvg speedWind from/ knotsBaromVisibWave heightAir tempDewpointWater temp
2017-Oct-22 21:00N 51°58' E 004°04'0 0.0
2017-Oct-22 20:30N 51°58' E 004°04'0 0.0
2017-Oct-22 20:00N 51°58' E 004°04'0 0.0
2017-Oct-22 19:29N 51°58' E 004°04'0 0.0
2017-Oct-22 18:59N 51°58' E 004°04'0 0.0
2017-Oct-22 18:29N 51°58' E 004°04'0 0.0
2017-Oct-22 17:59N 51°58' E 004°04'0 0.0
2017-Oct-22 17:29N 51°58' E 004°04'0 0.0
2017-Oct-22 16:58N 51°58' E 004°04'0 0.0
2017-Oct-22 16:28N 51°58' E 004°04'0 0.0
2017-Oct-22 15:58N 51°58' E 004°04'0 0.0
2017-Oct-22 15:28N 51°58' E 004°04'0 0.0
2017-Oct-22 15:01N 51°58' E 004°04'0 0.0
2017-Oct-22 14:30N 51°58' E 004°04'0 0.0
2017-Oct-22 14:00N 51°58' E 004°04'0 0.0
2017-Oct-22 13:30N 51°58' E 004°04'0 0.0
2017-Oct-22 13:00N 51°58' E 004°04'0 0.0
2017-Oct-22 12:29N 51°58' E 004°04'0 0.0
2017-Oct-22 11:59N 51°58' E 004°04'0 0.0
2017-Oct-22 11:26N 51°58' E 004°04'0 0.0
2017-Oct-22 10:59N 51°58' E 004°04'0 0.0
2017-Oct-22 10:29N 51°58' E 004°04'0 0.0
2017-Oct-22 09:52N 51°58' E 004°04'0 0.0
2017-Oct-22 09:28N 51°58' E 004°04'0 0.0
2017-Oct-22 08:58N 51°58' E 004°04'0 0.0
2017-Oct-22 08:22N 51°58' E 004°04'0 0.0
2017-Oct-22 07:54N 51°58' E 004°04'0 0.0
2017-Oct-22 07:30N 51°58' E 004°04'0 0.0
2017-Oct-22 07:00N 51°58' E 004°04'0 0.0
2017-Oct-22 06:30N 51°58' E 004°04'0 0.0
2017-Oct-22 06:00N 51°58' E 004°04'0 0.0
2017-Oct-22 05:29N 51°58' E 004°04'0 0.0
2017-Oct-22 04:59N 51°58' E 004°04'0 0.0
2017-Oct-22 04:30N 51°58' E 004°04'0 0.5
2017-Oct-22 04:00N 51°58' E 004°04'2 3.7
2017-Oct-22 03:30N 51°59' E 004°03'4 7.4
2017-Oct-22 03:00N 52°00' E 003°57'4 7.1
2017-Oct-22 02:30N 52°02' E 003°52'510.4
2017-Oct-22 02:00N 52°06' E 003°47'4 8.9
2017-Oct-22 01:30N 52°10' E 003°44'0 0.3
2017-Oct-22 00:59N 52°10' E 003°44'0 0.1
2017-Oct-22 00:28N 52°10' E 003°44'0 0.0
2017-Oct-21 23:52N 52°10' E 003°44'0 0.2
2017-Oct-21 23:28N 52°10' E 003°44'0 0.2
2017-Oct-21 22:52N 52°10' E 003°44'0 0.0
2017-Oct-21 22:28N 52°10' E 003°44'0 0.0
2017-Oct-21 21:59N 52°10' E 003°44'0 0.0
2017-Oct-21 21:30N 52°10' E 003°44'0 0.1
2017-Oct-21 21:00N 52°10' E 003°44'0 0.9
2017-Oct-21 20:30N 52°11' E 003°44'5 9.6
2017-Oct-21 20:00N 52°15' E 003°47'510.0
2017-Oct-21 19:30N 52°20' E 003°48'5 9.5
2017-Oct-21 19:01N 52°25' E 003°50'5 9.3
2017-Oct-21 18:30N 52°29' E 003°52'4 8.7
2017-Oct-21 18:01N 52°33' E 003°54'4 8.0
2017-Oct-21 17:31N 52°37' E 003°54'4 8.0
2017-Oct-21 17:00N 52°41' E 003°55'4 7.8
2017-Oct-21 16:31N 52°45' E 003°55'4 7.8
2017-Oct-21 16:01N 52°49' E 003°56'4 8.1
2017-Oct-21 15:31N 52°53' E 003°58'4 8.4
2017-Oct-21 15:00N 52°57' E 004°00'9 8.9
2017-Oct-21 14:01N 53°03' E 004°11'510.0
2017-Oct-21 13:31N 53°06' E 004°18'610.7
2017-Oct-21 13:00N 53°10' E 004°25'1011.3
2017-Oct-21 12:06N 53°19' E 004°31'211.4
2017-Oct-21 11:54N 53°21' E 004°33'611.3
2017-Oct-21 11:23N 53°26' E 004°37'410.5
2017-Oct-21 11:01N 53°29' E 004°42'510.8
2017-Oct-21 10:30N 53°31' E 004°50'510.3
2017-Oct-21 10:00N 53°34' E 004°58'510.0
2017-Oct-21 09:30N 53°36' E 005°05'17 9.7
2017-Oct-21 07:47N 53°41' E 005°32'7411.5
2017-Oct-21 01:20N 54°01' E 007°33'411.4
2017-Oct-21 00:59N 54°01' E 007°40'511.1
2017-Oct-21 00:30N 54°02' E 007°49'510.9
2017-Oct-21 00:00N 54°02' E 007°58'510.7
2017-Oct-20 23:31N 54°01' E 008°07'510.5
2017-Oct-20 23:00N 54°00' E 008°16'714.0
2017-Oct-20 22:30N 53°59' E 008°28'713.9
2017-Oct-20 22:00N 53°57' E 008°39'612.4
2017-Oct-20 21:30N 53°51' E 008°45'713.8
2017-Oct-20 21:00N 53°51' E 008°57'714.6
2017-Oct-20 20:31N 53°53' E 009°08'510.7
2017-Oct-20 20:00N 53°52' E 009°17'714.8
2017-Oct-20 19:30N 53°46' E 009°24'713.8
2017-Oct-20 19:01N 53°40' E 009°31'612.8
2017-Oct-20 18:30N 53°35' E 009°37'611.7
2017-Oct-20 18:00N 53°34' E 009°47'5 9.3
2017-Oct-20 17:30N 53°32' E 009°54'0 0.5
2017-Oct-20 16:59N 53°32' E 009°55'0 0.0
2017-Oct-20 16:29N 53°32' E 009°55'0 0.0
2017-Oct-20 15:59N 53°32' E 009°55'0 0.0
2017-Oct-20 15:29N 53°32' E 009°55'0 0.0
2017-Oct-20 14:58N 53°32' E 009°55'0 0.0
2017-Oct-20 13:58N 53°32' E 009°55'0 0.0
2017-Oct-20 13:28N 53°32' E 009°55'0 0.0
2017-Oct-20 13:00N 53°32' E 009°55'0 0.0
2017-Oct-20 12:30N 53°32' E 009°55'0 0.0
2017-Oct-20 12:00N 53°32' E 009°55'0 0.0
2017-Oct-20 11:30N 53°32' E 009°55'0 0.0
2017-Oct-20 11:00N 53°32' E 009°55'0 0.0
2017-Oct-20 10:29N 53°32' E 009°55'0 0.0
2017-Oct-20 09:59N 53°32' E 009°55'0 0.0
2017-Oct-20 09:29N 53°32' E 009°55'0 0.0
2017-Oct-20 08:59N 53°32' E 009°55'0 0.0
2017-Oct-20 08:26N 53°32' E 009°55'0 0.0
2017-Oct-20 07:58N 53°32' E 009°55'0 0.0
2017-Oct-20 07:28N 53°32' E 009°55'0 0.0
2017-Oct-20 06:58N 53°32' E 009°55'0 0.0
2017-Oct-20 06:28N 53°32' E 009°55'0 0.0
2017-Oct-20 06:00N 53°32' E 009°55'0 0.0
2017-Oct-20 05:27N 53°32' E 009°55'0 0.0
2017-Oct-20 05:00N 53°32' E 009°55'0 0.0
2017-Oct-20 04:30N 53°32' E 009°55'0 0.0
2017-Oct-20 04:00N 53°32' E 009°55'0 0.0
2017-Oct-20 03:29N 53°32' E 009°55'0 0.0
2017-Oct-20 02:59N 53°32' E 009°55'0 0.0
2017-Oct-20 02:29N 53°32' E 009°55'0 0.0
2017-Oct-20 01:59N 53°32' E 009°55'0 0.0
2017-Oct-20 01:28N 53°32' E 009°55'0 0.0
2017-Oct-20 00:58N 53°32' E 009°55'0 0.0
2017-Oct-20 00:28N 53°32' E 009°55'0 0.0
2017-Oct-19 23:58N 53°32' E 009°55'0 0.0
2017-Oct-19 23:30N 53°32' E 009°55'0 0.0
2017-Oct-19 23:00N 53°32' E 009°55'0 0.0
2017-Oct-19 22:30N 53°32' E 009°55'0 0.0
2017-Oct-19 22:00N 53°32' E 009°55'0 0.0
2017-Oct-19 21:30N 53°32' E 009°55'0 0.0
2017-Oct-19 20:59N 53°32' E 009°55'0 0.0
2017-Oct-19 20:29N 53°32' E 009°55'0 0.0
2017-Oct-19 19:59N 53°32' E 009°55'0 0.0
2017-Oct-19 19:29N 53°32' E 009°55'0 0.0
2017-Oct-19 18:59N 53°32' E 009°55'0 0.0
2017-Oct-19 18:28N 53°32' E 009°55'0 0.0
2017-Oct-19 17:58N 53°32' E 009°55'0 0.0
2017-Oct-19 17:28N 53°32' E 009°55'0 0.0
2017-Oct-19 16:58N 53°32' E 009°55'0 0.0
2017-Oct-19 16:28N 53°32' E 009°55'0 0.0
2017-Oct-19 15:59N 53°32' E 009°55'0 0.0
2017-Oct-19 15:29N 53°32' E 009°55'0 0.0
2017-Oct-19 14:59N 53°32' E 009°55'0 0.0
2017-Oct-19 14:29N 53°32' E 009°55'0 0.0
2017-Oct-19 13:58N 53°32' E 009°55'0 0.0
2017-Oct-19 13:28N 53°32' E 009°55'0 0.0
2017-Oct-19 12:58N 53°32' E 009°55'0 0.0
2017-Oct-19 12:31N 53°32' E 009°55'2 3.1
2017-Oct-19 12:00N 53°33' E 009°52'510.0
2017-Oct-19 11:31N 53°34' E 009°44'713.1
2017-Oct-19 11:01N 53°37' E 009°34'612.3
2017-Oct-19 10:30N 53°42' E 009°29'713.5
2017-Oct-19 10:00N 53°48' E 009°23'714.4
2017-Oct-19 09:30N 53°53' E 009°14'611.5
2017-Oct-19 09:01N 53°52' E 009°04'815.2
2017-Oct-19 08:31N 53°50' E 008°52'611.8
2017-Oct-19 08:00N 53°53' E 008°43'815.0
2017-Oct-19 07:30N 53°58' E 008°33'917.2
2017-Oct-19 07:00N 53°59' E 008°19'713.1
2017-Oct-19 06:30N 53°60' E 008°08'612.0
2017-Oct-19 05:58N 53°58' E 007°57'9918.5
2017-Oct-19 00:36N 53°32' E 005°15'218.0
2017-Oct-19 00:30N 53°31' E 005°13'918.7
2017-Oct-19 00:00N 53°28' E 004°58'1019.0
2017-Oct-18 23:30N 53°24' E 004°44'1019.1
2017-Oct-18 23:00N 53°16' E 004°35'1519.4
2017-Oct-18 22:15N 53°03' E 004°24'519.4
2017-Oct-18 22:00N 52°59' E 004°20'1019.4
2017-Oct-18 21:30N 52°50' E 004°12'1019.1
2017-Oct-18 21:00N 52°43' E 004°02'1019.1
2017-Oct-18 20:30N 52°35' E 003°52'1019.1
2017-Oct-18 20:00N 52°29' E 003°41'1019.1
2017-Oct-18 19:30N 52°22' E 003°30'1118.7
2017-Oct-18 18:55N 52°14' E 003°17'4517.3
2017-Oct-18 16:17N 51°53' E 002°12'516.9
2017-Oct-18 16:00N 51°52' E 002°04'1019.1
2017-Oct-18 15:30N 51°48' E 001°50'714.3
2017-Oct-18 15:00N 51°51' E 001°39'1010.4
2017-Oct-18 14:01N 51°56' E 001°24'4 8.2
2017-Oct-18 13:30N 51°57' E 001°18'0 0.3
2017-Oct-18 13:00N 51°58' E 001°18'0 0.0
2017-Oct-18 12:30N 51°58' E 001°18'0 0.0
2017-Oct-18 12:00N 51°57' E 001°18'0 0.0
2017-Oct-18 11:29N 51°58' E 001°18'0 0.0
2017-Oct-18 10:59N 51°58' E 001°18'0 0.0
2017-Oct-18 10:29N 51°57' E 001°18'0 0.0
2017-Oct-18 09:59N 51°58' E 001°18'0 0.0
2017-Oct-18 09:29N 51°58' E 001°18'0 0.0
2017-Oct-18 08:58N 51°58' E 001°18'0 0.0
2017-Oct-18 08:28N 51°58' E 001°18'0 0.0
2017-Oct-18 07:58N 51°57' E 001°18'0 0.0
2017-Oct-18 07:28N 51°58' E 001°18'0 0.0
2017-Oct-18 07:00N 51°58' E 001°18'0 0.0
2017-Oct-18 06:30N 51°58' E 001°18'0 0.0
2017-Oct-18 06:00N 51°58' E 001°18'0 0.0
2017-Oct-18 05:30N 51°58' E 001°18'0 0.0
2017-Oct-18 05:00N 51°58' E 001°18'0 0.0
2017-Oct-18 04:29N 51°58' E 001°18'0 0.0
2017-Oct-18 03:59N 51°58' E 001°18'0 0.0
2017-Oct-18 03:29N 51°58' E 001°18'0 0.0
2017-Oct-18 02:59N 51°58' E 001°18'0 0.0
2017-Oct-18 02:29N 51°57' E 001°18'0 0.0
2017-Oct-18 01:58N 51°58' E 001°18'0 0.0
2017-Oct-18 01:28N 51°58' E 001°18'0 0.0
2017-Oct-18 00:58N 51°57' E 001°18'0 0.0
2017-Oct-18 00:28N 51°57' E 001°18'0 0.0
2017-Oct-18 00:00N 51°58' E 001°18'0 0.0
2017-Oct-17 23:30N 51°58' E 001°18'0 0.0
2017-Oct-17 23:00N 51°58' E 001°18'0 0.0
2017-Oct-17 22:30N 51°58' E 001°18'0 0.0
2017-Oct-17 22:00N 51°58' E 001°18'0 0.0
2017-Oct-17 21:29N 51°58' E 001°18'0 0.0
2017-Oct-17 20:56N 51°58' E 001°18'0 0.0
2017-Oct-17 20:29N 51°58' E 001°18'0 0.0
2017-Oct-17 19:59N 51°58' E 001°18'0 0.0
2017-Oct-17 19:28N 51°58' E 001°18'0 0.0
2017-Oct-17 18:58N 51°58' E 001°18'0 0.0
2017-Oct-17 18:28N 51°58' E 001°18'0 0.0
2017-Oct-17 17:58N 51°58' E 001°18'0 0.0
2017-Oct-17 17:28N 51°58' E 001°18'0 0.0
2017-Oct-17 17:00N 51°58' E 001°18'0 0.0
2017-Oct-17 16:30N 51°58' E 001°18'0 0.0
2017-Oct-17 16:00N 51°58' E 001°18'0 0.0
2017-Oct-17 15:30N 51°58' E 001°18'0 0.0
2017-Oct-17 15:00N 51°58' E 001°18'0 0.0
2017-Oct-17 14:29N 51°58' E 001°18'0 0.0
2017-Oct-17 13:59N 51°58' E 001°18'0 0.0
2017-Oct-17 13:29N 51°58' E 001°18'0 0.0
2017-Oct-17 12:59N 51°58' E 001°18'0 0.0
2017-Oct-17 12:28N 51°58' E 001°18'0 0.0
2017-Oct-17 11:58N 51°58' E 001°18'0 0.0
2017-Oct-17 11:28N 51°58' E 001°18'0 0.0
2017-Oct-17 10:58N 51°58' E 001°18'0 0.0
2017-Oct-17 10:28N 51°58' E 001°18'0 0.0
2017-Oct-17 10:00N 51°58' E 001°18'0 0.0
2017-Oct-17 09:30N 51°58' E 001°18'0 0.0
2017-Oct-17 09:00N 51°57' E 001°18'0 0.0
2017-Oct-17 08:30N 51°58' E 001°18'0 0.0
2017-Oct-17 07:59N 51°58' E 001°18'0 0.0
2017-Oct-17 07:29N 51°58' E 001°18'0 0.0
2017-Oct-17 06:59N 51°58' E 001°18'0 0.0
2017-Oct-17 06:29N 51°58' E 001°18'0 0.0
2017-Oct-17 05:59N 51°58' E 001°18'0 0.0
2017-Oct-17 05:28N 51°58' E 001°18'0 0.0
2017-Oct-17 04:58N 51°58' E 001°18'0 0.0
2017-Oct-17 04:28N 51°58' E 001°18'0 0.1
2017-Oct-17 04:01N 51°57' E 001°18'2 4.0
2017-Oct-17 03:31N 51°56' E 001°19'611.4
2017-Oct-17 03:00N 51°56' E 001°28'5 9.8
2017-Oct-17 02:30N 51°53' E 001°34'4 8.8
2017-Oct-17 02:00N 51°51' E 001°40'1 1.0
2017-Oct-17 01:31N 51°51' E 001°41'2 4.3
2017-Oct-17 01:00N 51°53' E 001°43'2 4.5
2017-Oct-17 00:30N 51°56' E 001°43'0 0.2
2017-Oct-16 23:58N 51°56' E 001°43'0 0.0
2017-Oct-16 23:28N 51°56' E 001°43'0 0.0
2017-Oct-16 22:58N 51°56' E 001°43'0 0.0
2017-Oct-16 22:28N 51°56' E 001°43'0 0.2
2017-Oct-16 22:00N 51°56' E 001°43'0 0.1
2017-Oct-16 21:30N 51°56' E 001°43'0 0.1
2017-Oct-16 21:00N 51°56' E 001°43'0 0.0
2017-Oct-16 20:30N 51°56' E 001°43'0 0.1
2017-Oct-16 19:59N 51°56' E 001°43'0 0.0
2017-Oct-16 19:29N 51°56' E 001°43'0 0.2
2017-Oct-16 18:59N 51°56' E 001°43'0 0.1
2017-Oct-16 18:29N 51°56' E 001°43'0 0.3
2017-Oct-16 17:59N 51°56' E 001°43'0 0.1
2017-Oct-16 17:28N 51°56' E 001°43'0 0.1
2017-Oct-16 16:58N 51°56' E 001°43'0 0.1
2017-Oct-16 16:28N 51°56' E 001°43'0 0.1
2017-Oct-16 15:58N 51°56' E 001°42'0 0.0
2017-Oct-16 15:28N 51°56' E 001°42'0 0.0
2017-Oct-16 15:00N 51°56' E 001°42'0 0.3
2017-Oct-16 14:30N 51°56' E 001°43'8 8.3
2017-Oct-16 13:30N 51°48' E 001°48'713.7
2017-Oct-16 13:00N 51°41' E 001°49'713.1
2017-Oct-16 12:30N 51°35' E 001°52'612.7
2017-Oct-16 12:00N 51°30' E 001°57'611.8
2017-Oct-16 11:31N 51°25' E 002°03'713.5
2017-Oct-16 11:00N 51°19' E 001°57'713.9
2017-Oct-16 10:31N 51°14' E 001°50'714.0
2017-Oct-16 10:00N 51°08' E 001°43'714.1
2017-Oct-16 09:31N 51°03' E 001°36'714.0
2017-Oct-16 09:00N 50°57' E 001°29'713.4
2017-Oct-16 08:30N 50°51' E 001°25'613.1
2017-Oct-16 08:01N 50°45' E 001°21'612.3
2017-Oct-16 07:31N 50°40' E 001°15'712.8
2017-Oct-16 07:00N 50°36' E 001°07'612.5
2017-Oct-16 06:31N 50°32' E 001°00'712.7
2017-Oct-16 06:00N 50°29' E 000°51'612.6
2017-Oct-16 05:31N 50°27' E 000°42'712.9
2017-Oct-16 05:00N 50°25' E 000°32'612.8
2017-Oct-16 04:31N 50°24' E 000°22'612.8
2017-Oct-16 04:00N 50°22' E 000°12'712.7
2017-Oct-16 03:30N 50°20' E 000°03'612.4
2017-Oct-16 03:00N 50°19' W 000°07'612.1
2017-Oct-16 02:30N 50°17' W 000°16'612.1
2017-Oct-16 02:00N 50°16' W 000°25'612.1
2017-Oct-16 01:30N 50°14' W 000°34'611.7
2017-Oct-16 01:00N 50°12' W 000°43'1011.3
2017-Oct-16 00:05N 50°10' W 000°59'444.7
2017-Oct-16 00:00N 50°06' W 001°00'4276.5 180 / 71017.4 5.4 18.315.717.0
2017-Oct-15 23:59N 50°10' W 001°00'510.9
2017-Oct-15 23:30N 50°08' W 001°08'510.7
2017-Oct-15 23:00N 50°07' W 001°16'510.6
2017-Oct-15 22:30N 50°06' W 001°24'510.8
2017-Oct-15 22:00N 50°04' W 001°32'511.1
2017-Oct-15 21:30N 50°03' W 001°41'611.2
2017-Oct-15 21:00N 50°02' W 001°49'1411.4
2017-Oct-15 19:48N 49°59' W 002°10'612.1
2017-Oct-15 19:20N 49°57' W 002°19'412.6
2017-Oct-15 19:00N 49°56' W 002°25'712.7
2017-Oct-15 18:30N 49°54' W 002°34'612.8
2017-Oct-15 18:01N 49°53' W 002°44'713.0
2017-Oct-15 17:30N 49°51' W 002°53'713.1
2017-Oct-15 17:01N 49°48' W 003°02'713.3
2017-Oct-15 16:31N 49°44' W 003°11'713.3
2017-Oct-15 16:00N 49°41' W 003°20'613.0
2017-Oct-15 15:30N 49°37' W 003°28'713.1
2017-Oct-15 15:01N 49°34' W 003°37'1512.8
2017-Oct-15 13:52N 49°26' W 003°56'512.8
2017-Oct-15 13:29N 49°24' W 004°02'812.7
2017-Oct-15 12:51N 49°19' W 004°13'1012.1
2017-Oct-15 12:00N 49°12' W 004°24'352.6 130 / 181015.9 2.2 19.013.815.0
2017-Oct-15 11:56N 49°14' W 004°28'1612.4
2017-Oct-15 10:36N 49°05' W 004°50'112.3
2017-Oct-15 10:30N 49°04' W 004°51'612.9
2017-Oct-15 10:01N 49°01' W 004°60'714.1
2017-Oct-15 09:29N 48°57' W 005°09'713.9
2017-Oct-15 08:59N 48°54' W 005°19'714.3
2017-Oct-15 08:30N 48°51' W 005°28'714.2
2017-Oct-15 08:00N 48°48' W 005°38'1213.9
2017-Oct-15 07:10N 48°37' W 005°46'313.8
2017-Oct-15 06:55N 48°34' W 005°48'613.8
2017-Oct-15 06:30N 48°29' W 005°52'713.7
2017-Oct-15 05:58N 48°23' W 005°57'1113.6
2017-Oct-15 05:09N 48°13' W 006°04'313.6
2017-Oct-15 04:56N 48°10' W 006°06'613.6
2017-Oct-15 04:31N 48°05' W 006°10'913.8
2017-Oct-15 03:53N 47°57' W 006°16'813.9
2017-Oct-15 03:18N 47°50' W 006°22'414.0
2017-Oct-15 03:00N 47°46' W 006°24'6313.9
2017-Oct-14 22:30N 46°51' W 007°07'14513.8
2017-Oct-14 12:00N 44°42' W 008°42'16914.1 130 / 131021.2 5.4 22.014.118.0
2017-Oct-14 00:00N 42°00' W 009°48'5 7.5 080 / 101022.8 5.4 18.015.620.0
2017-Oct-13 23:22N 41°55' W 009°49'614.2
2017-Oct-13 22:58N 41°50' W 009°49'814.3
2017-Oct-13 22:25N 41°42' W 009°49'614.2
2017-Oct-13 22:00N 41°36' W 009°49'713.9
2017-Oct-13 21:31N 41°29' W 009°49'814.1
2017-Oct-13 20:55N 41°21' W 009°49'613.9
2017-Oct-13 20:31N 41°15' W 009°49'714.0
2017-Oct-13 20:00N 41°08' W 009°50'713.9
2017-Oct-13 19:30N 41°01' W 009°50'713.6
2017-Oct-13 19:00N 40°54' W 009°50'713.7
2017-Oct-13 18:31N 40°48' W 009°50'713.9
2017-Oct-13 18:00N 40°41' W 009°50'714.0
2017-Oct-13 17:30N 40°34' W 009°49'713.9
2017-Oct-13 17:00N 40°27' W 009°50'714.1
2017-Oct-13 16:30N 40°20' W 009°50'913.9
2017-Oct-13 15:53N 40°11' W 009°50'4814.2
2017-Oct-13 12:31N 39°23' W 009°50'014.5
2017-Oct-13 12:30N 39°23' W 009°50'714.1
2017-Oct-13 12:00N 39°16' W 009°49'4368.7
2017-Oct-13 12:00N 39°12' W 009°48'4 7.7 080 / 61025.3 0.1 21.615.918.0
2017-Oct-13 11:30N 39°09' W 009°50'713.8
2017-Oct-13 11:00N 39°02' W 009°51'713.9
2017-Oct-13 10:30N 38°55' W 009°51'713.9
2017-Oct-13 10:01N 38°48' W 009°51'714.2
2017-Oct-13 09:30N 38°41' W 009°51'714.2
2017-Oct-13 09:00N 38°34' W 009°48'714.5
2017-Oct-13 08:30N 38°27' W 009°45'815.4
2017-Oct-13 08:00N 38°20' W 009°42'816.2
2017-Oct-13 07:30N 38°12' W 009°40'816.3
2017-Oct-13 07:00N 38°04' W 009°38'815.8
2017-Oct-13 06:30N 37°56' W 009°36'816.0
2017-Oct-13 06:00N 37°48' W 009°34'816.4
2017-Oct-13 05:30N 37°40' W 009°33'916.3
2017-Oct-13 04:57N 37°31' W 009°30'716.1
2017-Oct-13 04:30N 37°24' W 009°28'816.2
2017-Oct-13 04:00N 37°16' W 009°26'816.6
2017-Oct-13 03:30N 37°08' W 009°24'816.1
2017-Oct-13 03:00N 37°00' W 009°23'815.9
2017-Oct-13 02:30N 36°53' W 009°21'815.9
2017-Oct-13 02:00N 36°47' W 009°13'815.5
2017-Oct-13 01:28N 36°44' W 009°04'1015.8
2017-Oct-13 00:52N 36°41' W 008°53'1015.7
2017-Oct-13 00:15N 36°37' W 008°41'417.4
2017-Oct-13 00:00N 36°36' W 008°36'815.4 360 / 161022.6 5.4 20.317.522.0
2017-Oct-12 23:28N 36°33' W 008°27'1215.8
2017-Oct-12 22:44N 36°30' W 008°13'515.8
2017-Oct-12 22:25N 36°29' W 008°07'  
Track history (hours):
 
Tides and Currents Weather Stations Pressure Air Temp Water Temp Dewpoint Dewpoint Depression Visibility Wind Speed Wind Dir Waves Ship Positions

Buxhai

Last reported at 2017-Oct-22 21:00 UTC. Time now 2017-Oct-22 21:18 UTC.
Position N 51°58' E 004°04'.

Length 282 m; draft 9.8 m.

Type: Ship (hazmat cat A). MMSI: 229384000.

Date/timePositionNaut miles runAvg speedWind from/ knotsBaromVisibWave heightAir tempDewpointWater temp
2017-Oct-22 21:00N 51°58' E 004°04'0 0.0
2017-Oct-22 20:30N 51°58' E 004°04'0 0.0
2017-Oct-22 20:00N 51°58' E 004°04'0 0.0
2017-Oct-22 19:29N 51°58' E 004°04'0 0.0
2017-Oct-22 18:59N 51°58' E 004°04'0 0.0
2017-Oct-22 18:29N 51°58' E 004°04'0 0.0
2017-Oct-22 17:59N 51°58' E 004°04'0 0.0
2017-Oct-22 17:29N 51°58' E 004°04'0 0.0
2017-Oct-22 16:58N 51°58' E 004°04'0 0.0
2017-Oct-22 16:28N 51°58' E 004°04'0 0.0
2017-Oct-22 15:58N 51°58' E 004°04'0 0.0
2017-Oct-22 15:28N 51°58' E 004°04'0 0.0
2017-Oct-22 15:01N 51°58' E 004°04'0 0.0
2017-Oct-22 14:30N 51°58' E 004°04'0 0.0
2017-Oct-22 14:00N 51°58' E 004°04'0 0.0
2017-Oct-22 13:30N 51°58' E 004°04'0 0.0
2017-Oct-22 13:00N 51°58' E 004°04'0 0.0
2017-Oct-22 12:29N 51°58' E 004°04'0 0.0
2017-Oct-22 11:59N 51°58' E 004°04'0 0.0
2017-Oct-22 11:26N 51°58' E 004°04'0 0.0
2017-Oct-22 10:59N 51°58' E 004°04'0 0.0
2017-Oct-22 10:29N 51°58' E 004°04'0 0.0
2017-Oct-22 09:52N 51°58' E 004°04'0 0.0
2017-Oct-22 09:28N 51°58' E 004°04'0 0.0
2017-Oct-22 08:58N 51°58' E 004°04'0 0.0
2017-Oct-22 08:22N 51°58' E 004°04'0 0.0
2017-Oct-22 07:54N 51°58' E 004°04'0 0.0
2017-Oct-22 07:30N 51°58' E 004°04'0 0.0
2017-Oct-22 07:00N 51°58' E 004°04'0 0.0
2017-Oct-22 06:30N 51°58' E 004°04'0 0.0
2017-Oct-22 06:00N 51°58' E 004°04'0 0.0
2017-Oct-22 05:29N 51°58' E 004°04'0 0.0
2017-Oct-22 04:59N 51°58' E 004°04'0 0.0
2017-Oct-22 04:30N 51°58' E 004°04'0 0.5
2017-Oct-22 04:00N 51°58' E 004°04'2 3.7
2017-Oct-22 03:30N 51°59' E 004°03'4 7.4
2017-Oct-22 03:00N 52°00' E 003°57'4 7.1
2017-Oct-22 02:30N 52°02' E 003°52'510.4
2017-Oct-22 02:00N 52°06' E 003°47'4 8.9
2017-Oct-22 01:30N 52°10' E 003°44'0 0.3
2017-Oct-22 00:59N 52°10' E 003°44'0 0.1
2017-Oct-22 00:28N 52°10' E 003°44'0 0.0
2017-Oct-21 23:52N 52°10' E 003°44'0 0.2
2017-Oct-21 23:28N 52°10' E 003°44'0 0.2
2017-Oct-21 22:52N 52°10' E 003°44'0 0.0
2017-Oct-21 22:28N 52°10' E 003°44'0 0.0
2017-Oct-21 21:59N 52°10' E 003°44'0 0.0
2017-Oct-21 21:30N 52°10' E 003°44'0 0.1
2017-Oct-21 21:00N 52°10' E 003°44'0 0.9
2017-Oct-21 20:30N 52°11' E 003°44'5 9.6
2017-Oct-21 20:00N 52°15' E 003°47'510.0
2017-Oct-21 19:30N 52°20' E 003°48'5 9.5
2017-Oct-21 19:01N 52°25' E 003°50'5 9.3
2017-Oct-21 18:30N 52°29' E 003°52'4 8.7
2017-Oct-21 18:01N 52°33' E 003°54'4 8.0
2017-Oct-21 17:31N 52°37' E 003°54'4 8.0
2017-Oct-21 17:00N 52°41' E 003°55'4 7.8
2017-Oct-21 16:31N 52°45' E 003°55'4 7.8
2017-Oct-21 16:01N 52°49' E 003°56'4 8.1
2017-Oct-21 15:31N 52°53' E 003°58'4 8.4
2017-Oct-21 15:00N 52°57' E 004°00'9 8.9
2017-Oct-21 14:01N 53°03' E 004°11'510.0
2017-Oct-21 13:31N 53°06' E 004°18'610.7
2017-Oct-21 13:00N 53°10' E 004°25'1011.3
2017-Oct-21 12:06N 53°19' E 004°31'211.4
2017-Oct-21 11:54N 53°21' E 004°33'611.3
2017-Oct-21 11:23N 53°26' E 004°37'410.5
2017-Oct-21 11:01N 53°29' E 004°42'510.8
2017-Oct-21 10:30N 53°31' E 004°50'510.3
2017-Oct-21 10:00N 53°34' E 004°58'510.0
2017-Oct-21 09:30N 53°36' E 005°05'17 9.7
2017-Oct-21 07:47N 53°41' E 005°32'7411.5
2017-Oct-21 01:20N 54°01' E 007°33'411.4
2017-Oct-21 00:59N 54°01' E 007°40'511.1
2017-Oct-21 00:30N 54°02' E 007°49'510.9
2017-Oct-21 00:00N 54°02' E 007°58'510.7
2017-Oct-20 23:31N 54°01' E 008°07'510.5
2017-Oct-20 23:00N 54°00' E 008°16'714.0
2017-Oct-20 22:30N 53°59' E 008°28'713.9
2017-Oct-20 22:00N 53°57' E 008°39'612.4
2017-Oct-20 21:30N 53°51' E 008°45'713.8
2017-Oct-20 21:00N 53°51' E 008°57'714.6
2017-Oct-20 20:31N 53°53' E 009°08'510.7
2017-Oct-20 20:00N 53°52' E 009°17'714.8
2017-Oct-20 19:30N 53°46' E 009°24'713.8
2017-Oct-20 19:01N 53°40' E 009°31'612.8
2017-Oct-20 18:30N 53°35' E 009°37'611.7
2017-Oct-20 18:00N 53°34' E 009°47'5 9.3
2017-Oct-20 17:30N 53°32' E 009°54'0 0.5
2017-Oct-20 16:59N 53°32' E 009°55'0 0.0
2017-Oct-20 16:29N 53°32' E 009°55'0 0.0
2017-Oct-20 15:59N 53°32' E 009°55'0 0.0
2017-Oct-20 15:29N 53°32' E 009°55'0 0.0
2017-Oct-20 14:58N 53°32' E 009°55'0 0.0
2017-Oct-20 13:58N 53°32' E 009°55'0 0.0
2017-Oct-20 13:28N 53°32' E 009°55'0 0.0
2017-Oct-20 13:00N 53°32' E 009°55'0 0.0
2017-Oct-20 12:30N 53°32' E 009°55'0 0.0
2017-Oct-20 12:00N 53°32' E 009°55'0 0.0
2017-Oct-20 11:30N 53°32' E 009°55'0 0.0
2017-Oct-20 11:00N 53°32' E 009°55'0 0.0
2017-Oct-20 10:29N 53°32' E 009°55'0 0.0
2017-Oct-20 09:59N 53°32' E 009°55'0 0.0
2017-Oct-20 09:29N 53°32' E 009°55'0 0.0
2017-Oct-20 08:59N 53°32' E 009°55'0 0.0
2017-Oct-20 08:26N 53°32' E 009°55'0 0.0
2017-Oct-20 07:58N 53°32' E 009°55'0 0.0
2017-Oct-20 07:28N 53°32' E 009°55'0 0.0
2017-Oct-20 06:58N 53°32' E 009°55'0 0.0
2017-Oct-20 06:28N 53°32' E 009°55'0 0.0
2017-Oct-20 06:00N 53°32' E 009°55'0 0.0
2017-Oct-20 05:27N 53°32' E 009°55'0 0.0
2017-Oct-20 05:00N 53°32' E 009°55'0 0.0
2017-Oct-20 04:30N 53°32' E 009°55'0 0.0
2017-Oct-20 04:00N 53°32' E 009°55'0 0.0
2017-Oct-20 03:29N 53°32' E 009°55'0 0.0
2017-Oct-20 02:59N 53°32' E 009°55'0 0.0
2017-Oct-20 02:29N 53°32' E 009°55'0 0.0
2017-Oct-20 01:59N 53°32' E 009°55'0 0.0
2017-Oct-20 01:28N 53°32' E 009°55'0 0.0
2017-Oct-20 00:58N 53°32' E 009°55'0 0.0
2017-Oct-20 00:28N 53°32' E 009°55'0 0.0
2017-Oct-19 23:58N 53°32' E 009°55'0 0.0
2017-Oct-19 23:30N 53°32' E 009°55'0 0.0
2017-Oct-19 23:00N 53°32' E 009°55'0 0.0
2017-Oct-19 22:30N 53°32' E 009°55'0 0.0
2017-Oct-19 22:00N 53°32' E 009°55'0 0.0
2017-Oct-19 21:30N 53°32' E 009°55'0 0.0
2017-Oct-19 20:59N 53°32' E 009°55'0 0.0
2017-Oct-19 20:29N 53°32' E 009°55'0 0.0
2017-Oct-19 19:59N 53°32' E 009°55'0 0.0
2017-Oct-19 19:29N 53°32' E 009°55'0 0.0
2017-Oct-19 18:59N 53°32' E 009°55'0 0.0
2017-Oct-19 18:28N 53°32' E 009°55'0 0.0
2017-Oct-19 17:58N 53°32' E 009°55'0 0.0
2017-Oct-19 17:28N 53°32' E 009°55'0 0.0
2017-Oct-19 16:58N 53°32' E 009°55'0 0.0
2017-Oct-19 16:28N 53°32' E 009°55'0 0.0
2017-Oct-19 15:59N 53°32' E 009°55'0 0.0
2017-Oct-19 15:29N 53°32' E 009°55'0 0.0
2017-Oct-19 14:59N 53°32' E 009°55'0 0.0
2017-Oct-19 14:29N 53°32' E 009°55'0 0.0
2017-Oct-19 13:58N 53°32' E 009°55'0 0.0
2017-Oct-19 13:28N 53°32' E 009°55'0 0.0
2017-Oct-19 12:58N 53°32' E 009°55'0 0.0
2017-Oct-19 12:31N 53°32' E 009°55'2 3.1
2017-Oct-19 12:00N 53°33' E 009°52'510.0
2017-Oct-19 11:31N 53°34' E 009°44'713.1
2017-Oct-19 11:01N 53°37' E 009°34'612.3
2017-Oct-19 10:30N 53°42' E 009°29'713.5
2017-Oct-19 10:00N 53°48' E 009°23'714.4
2017-Oct-19 09:30N 53°53' E 009°14'611.5
2017-Oct-19 09:01N 53°52' E 009°04'815.2
2017-Oct-19 08:31N 53°50' E 008°52'611.8
2017-Oct-19 08:00N 53°53' E 008°43'815.0
2017-Oct-19 07:30N 53°58' E 008°33'917.2
2017-Oct-19 07:00N 53°59' E 008°19'713.1
2017-Oct-19 06:30N 53°60' E 008°08'612.0
2017-Oct-19 05:58N 53°58' E 007°57'9918.5
2017-Oct-19 00:36N 53°32' E 005°15'218.0
2017-Oct-19 00:30N 53°31' E 005°13'918.7
2017-Oct-19 00:00N 53°28' E 004°58'1019.0
2017-Oct-18 23:30N 53°24' E 004°44'1019.1
2017-Oct-18 23:00N 53°16' E 004°35'1519.4
2017-Oct-18 22:15N 53°03' E 004°24'519.4
2017-Oct-18 22:00N 52°59' E 004°20'1019.4
2017-Oct-18 21:30N 52°50' E 004°12'1019.1
2017-Oct-18 21:00N 52°43' E 004°02'1019.1
2017-Oct-18 20:30N 52°35' E 003°52'1019.1
2017-Oct-18 20:00N 52°29' E 003°41'1019.1
2017-Oct-18 19:30N 52°22' E 003°30'1118.7
2017-Oct-18 18:55N 52°14' E 003°17'4517.3
2017-Oct-18 16:17N 51°53' E 002°12'516.9
2017-Oct-18 16:00N 51°52' E 002°04'1019.1
2017-Oct-18 15:30N 51°48' E 001°50'714.3
2017-Oct-18 15:00N 51°51' E 001°39'1010.4
2017-Oct-18 14:01N 51°56' E 001°24'4 8.2
2017-Oct-18 13:30N 51°57' E 001°18'0 0.3
2017-Oct-18 13:00N 51°58' E 001°18'0 0.0
2017-Oct-18 12:30N 51°58' E 001°18'0 0.0
2017-Oct-18 12:00N 51°57' E 001°18'0 0.0
2017-Oct-18 11:29N 51°58' E 001°18'0 0.0
2017-Oct-18 10:59N 51°58' E 001°18'0 0.0
2017-Oct-18 10:29N 51°57' E 001°18'0 0.0
2017-Oct-18 09:59N 51°58' E 001°18'0 0.0
2017-Oct-18 09:29N 51°58' E 001°18'0 0.0
2017-Oct-18 08:58N 51°58' E 001°18'0 0.0
2017-Oct-18 08:28N 51°58' E 001°18'0 0.0
2017-Oct-18 07:58N 51°57' E 001°18'0 0.0
2017-Oct-18 07:28N 51°58' E 001°18'0 0.0
2017-Oct-18 07:00N 51°58' E 001°18'0 0.0
2017-Oct-18 06:30N 51°58' E 001°18'0 0.0
2017-Oct-18 06:00N 51°58' E 001°18'0 0.0
2017-Oct-18 05:30N 51°58' E 001°18'0 0.0
2017-Oct-18 05:00N 51°58' E 001°18'0 0.0
2017-Oct-18 04:29N 51°58' E 001°18'0 0.0
2017-Oct-18 03:59N 51°58' E 001°18'0 0.0
2017-Oct-18 03:29N 51°58' E 001°18'0 0.0
2017-Oct-18 02:59N 51°58' E 001°18'0 0.0
2017-Oct-18 02:29N 51°57' E 001°18'0 0.0
2017-Oct-18 01:58N 51°58' E 001°18'0 0.0
2017-Oct-18 01:28N 51°58' E 001°18'0 0.0
2017-Oct-18 00:58N 51°57' E 001°18'0 0.0
2017-Oct-18 00:28N 51°57' E 001°18'0 0.0
2017-Oct-18 00:00N 51°58' E 001°18'0 0.0
2017-Oct-17 23:30N 51°58' E 001°18'0 0.0
2017-Oct-17 23:00N 51°58' E 001°18'0 0.0
2017-Oct-17 22:30N 51°58' E 001°18'0 0.0
2017-Oct-17 22:00N 51°58' E 001°18'0 0.0
2017-Oct-17 21:29N 51°58' E 001°18'0 0.0
2017-Oct-17 20:56N 51°58' E 001°18'0 0.0
2017-Oct-17 20:29N 51°58' E 001°18'0 0.0
2017-Oct-17 19:59N 51°58' E 001°18'0 0.0
2017-Oct-17 19:28N 51°58' E 001°18'0 0.0
2017-Oct-17 18:58N 51°58' E 001°18'0 0.0
2017-Oct-17 18:28N 51°58' E 001°18'0 0.0
2017-Oct-17 17:58N 51°58' E 001°18'0 0.0
2017-Oct-17 17:28N 51°58' E 001°18'0 0.0
2017-Oct-17 17:00N 51°58' E 001°18'0 0.0
2017-Oct-17 16:30N 51°58' E 001°18'0 0.0
2017-Oct-17 16:00N 51°58' E 001°18'0 0.0
2017-Oct-17 15:30N 51°58' E 001°18'0 0.0
2017-Oct-17 15:00N 51°58' E 001°18'0 0.0
2017-Oct-17 14:29N 51°58' E 001°18'0 0.0
2017-Oct-17 13:59N 51°58' E 001°18'0 0.0
2017-Oct-17 13:29N 51°58' E 001°18'0 0.0
2017-Oct-17 12:59N 51°58' E 001°18'0 0.0
2017-Oct-17 12:28N 51°58' E 001°18'0 0.0
2017-Oct-17 11:58N 51°58' E 001°18'0 0.0
2017-Oct-17 11:28N 51°58' E 001°18'0 0.0
2017-Oct-17 10:58N 51°58' E 001°18'0 0.0
2017-Oct-17 10:28N 51°58' E 001°18'0 0.0
2017-Oct-17 10:00N 51°58' E 001°18'0 0.0
2017-Oct-17 09:30N 51°58' E 001°18'0 0.0
2017-Oct-17 09:00N 51°57' E 001°18'0 0.0
2017-Oct-17 08:30N 51°58' E 001°18'0 0.0
2017-Oct-17 07:59N 51°58' E 001°18'0 0.0
2017-Oct-17 07:29N 51°58' E 001°18'0 0.0
2017-Oct-17 06:59N 51°58' E 001°18'0 0.0
2017-Oct-17 06:29N 51°58' E 001°18'0 0.0
2017-Oct-17 05:59N 51°58' E 001°18'0 0.0
2017-Oct-17 05:28N 51°58' E 001°18'0 0.0
2017-Oct-17 04:58N 51°58' E 001°18'0 0.0
2017-Oct-17 04:28N 51°58' E 001°18'0 0.1
2017-Oct-17 04:01N 51°57' E 001°18'2 4.0
2017-Oct-17 03:31N 51°56' E 001°19'611.4
2017-Oct-17 03:00N 51°56' E 001°28'5 9.8
2017-Oct-17 02:30N 51°53' E 001°34'4 8.8
2017-Oct-17 02:00N 51°51' E 001°40'1 1.0
2017-Oct-17 01:31N 51°51' E 001°41'2 4.3
2017-Oct-17 01:00N 51°53' E 001°43'2 4.5
2017-Oct-17 00:30N 51°56' E 001°43'0 0.2
2017-Oct-16 23:58N 51°56' E 001°43'0 0.0
2017-Oct-16 23:28N 51°56' E 001°43'0 0.0
2017-Oct-16 22:58N 51°56' E 001°43'0 0.0
2017-Oct-16 22:28N 51°56' E 001°43'0 0.2
2017-Oct-16 22:00N 51°56' E 001°43'0 0.1
2017-Oct-16 21:30N 51°56' E 001°43'0 0.1
2017-Oct-16 21:00N 51°56' E 001°43'0 0.0
2017-Oct-16 20:30N 51°56' E 001°43'0 0.1
2017-Oct-16 19:59N 51°56' E 001°43'0 0.0
2017-Oct-16 19:29N 51°56' E 001°43'0 0.2
2017-Oct-16 18:59N 51°56' E 001°43'0 0.1
2017-Oct-16 18:29N 51°56' E 001°43'0 0.3
2017-Oct-16 17:59N 51°56' E 001°43'0 0.1
2017-Oct-16 17:28N 51°56' E 001°43'0 0.1
2017-Oct-16 16:58N 51°56' E 001°43'0 0.1
2017-Oct-16 16:28N 51°56' E 001°43'0 0.1
2017-Oct-16 15:58N 51°56' E 001°42'0 0.0
2017-Oct-16 15:28N 51°56' E 001°42'0 0.0
2017-Oct-16 15:00N 51°56' E 001°42'0 0.3
2017-Oct-16 14:30N 51°56' E 001°43'8 8.3
2017-Oct-16 13:30N 51°48' E 001°48'713.7
2017-Oct-16 13:00N 51°41' E 001°49'713.1
2017-Oct-16 12:30N 51°35' E 001°52'612.7
2017-Oct-16 12:00N 51°30' E 001°57'611.8
2017-Oct-16 11:31N 51°25' E 002°03'713.5
2017-Oct-16 11:00N 51°19' E 001°57'713.9
2017-Oct-16 10:31N 51°14' E 001°50'714.0
2017-Oct-16 10:00N 51°08' E 001°43'714.1
2017-Oct-16 09:31N 51°03' E 001°36'714.0
2017-Oct-16 09:00N 50°57' E 001°29'713.4
2017-Oct-16 08:30N 50°51' E 001°25'613.1
2017-Oct-16 08:01N 50°45' E 001°21'612.3
2017-Oct-16 07:31N 50°40' E 001°15'712.8
2017-Oct-16 07:00N 50°36' E 001°07'612.5
2017-Oct-16 06:31N 50°32' E 001°00'712.7
2017-Oct-16 06:00N 50°29' E 000°51'612.6
2017-Oct-16 05:31N 50°27' E 000°42'712.9
2017-Oct-16 05:00N 50°25' E 000°32'612.8
2017-Oct-16 04:31N 50°24' E 000°22'612.8
2017-Oct-16 04:00N 50°22' E 000°12'712.7
2017-Oct-16 03:30N 50°20' E 000°03'612.4
2017-Oct-16 03:00N 50°19' W 000°07'612.1
2017-Oct-16 02:30N 50°17' W 000°16'612.1
2017-Oct-16 02:00N 50°16' W 000°25'612.1
2017-Oct-16 01:30N 50°14' W 000°34'611.7
2017-Oct-16 01:00N 50°12' W 000°43'1011.3
2017-Oct-16 00:05N 50°10' W 000°59'444.7
2017-Oct-16 00:00N 50°06' W 001°00'4276.5 180 / 71017.4 5.4 18.315.717.0
2017-Oct-15 23:59N 50°10' W 001°00'510.9
2017-Oct-15 23:30N 50°08' W 001°08'510.7
2017-Oct-15 23:00N 50°07' W 001°16'510.6
2017-Oct-15 22:30N 50°06' W 001°24'510.8
2017-Oct-15 22:00N 50°04' W 001°32'511.1
2017-Oct-15 21:30N 50°03' W 001°41'611.2
2017-Oct-15 21:00N 50°02' W 001°49'1411.4
2017-Oct-15 19:48N 49°59' W 002°10'612.1
2017-Oct-15 19:20N 49°57' W 002°19'412.6
2017-Oct-15 19:00N 49°56' W 002°25'712.7
2017-Oct-15 18:30N 49°54' W 002°34'612.8
2017-Oct-15 18:01N 49°53' W 002°44'713.0
2017-Oct-15 17:30N 49°51' W 002°53'713.1
2017-Oct-15 17:01N 49°48' W 003°02'713.3
2017-Oct-15 16:31N 49°44' W 003°11'713.3
2017-Oct-15 16:00N 49°41' W 003°20'613.0
2017-Oct-15 15:30N 49°37' W 003°28'713.1
2017-Oct-15 15:01N 49°34' W 003°37'1512.8
2017-Oct-15 13:52N 49°26' W 003°56'512.8
2017-Oct-15 13:29N 49°24' W 004°02'812.7
2017-Oct-15 12:51N 49°19' W 004°13'1012.1
2017-Oct-15 12:00N 49°12' W 004°24'352.6 130 / 181015.9 2.2 19.013.815.0
2017-Oct-15 11:56N 49°14' W 004°28'1612.4
2017-Oct-15 10:36N 49°05' W 004°50'112.3
2017-Oct-15 10:30N 49°04' W 004°51'612.9
2017-Oct-15 10:01N 49°01' W 004°60'714.1
2017-Oct-15 09:29N 48°57' W 005°09'713.9
2017-Oct-15 08:59N 48°54' W 005°19'714.3
2017-Oct-15 08:30N 48°51' W 005°28'714.2
2017-Oct-15 08:00N 48°48' W 005°38'1213.9
2017-Oct-15 07:10N 48°37' W 005°46'313.8
2017-Oct-15 06:55N 48°34' W 005°48'613.8
2017-Oct-15 06:30N 48°29' W 005°52'713.7
2017-Oct-15 05:58N 48°23' W 005°57'1113.6
2017-Oct-15 05:09N 48°13' W 006°04'313.6
2017-Oct-15 04:56N 48°10' W 006°06'613.6
2017-Oct-15 04:31N 48°05' W 006°10'913.8
2017-Oct-15 03:53N 47°57' W 006°16'813.9
2017-Oct-15 03:18N 47°50' W 006°22'414.0
2017-Oct-15 03:00N 47°46' W 006°24'6313.9
2017-Oct-14 22:30N 46°51' W 007°07'14513.8
2017-Oct-14 12:00N 44°42' W 008°42'16914.1 130 / 131021.2 5.4 22.014.118.0
2017-Oct-14 00:00N 42°00' W 009°48'5 7.5 080 / 101022.8 5.4 18.015.620.0
2017-Oct-13 23:22N 41°55' W 009°49'614.2
2017-Oct-13 22:58N 41°50' W 009°49'814.3
2017-Oct-13 22:25N 41°42' W 009°49'614.2
2017-Oct-13 22:00N 41°36' W 009°49'713.9
2017-Oct-13 21:31N 41°29' W 009°49'814.1
2017-Oct-13 20:55N 41°21' W 009°49'613.9
2017-Oct-13 20:31N 41°15' W 009°49'714.0
2017-Oct-13 20:00N 41°08' W 009°50'713.9
2017-Oct-13 19:30N 41°01' W 009°50'713.6
2017-Oct-13 19:00N 40°54' W 009°50'713.7
2017-Oct-13 18:31N 40°48' W 009°50'713.9
2017-Oct-13 18:00N 40°41' W 009°50'714.0
2017-Oct-13 17:30N 40°34' W 009°49'713.9
2017-Oct-13 17:00N 40°27' W 009°50'714.1
2017-Oct-13 16:30N 40°20' W 009°50'913.9
2017-Oct-13 15:53N 40°11' W 009°50'4814.2
2017-Oct-13 12:31N 39°23' W 009°50'014.5
2017-Oct-13 12:30N 39°23' W 009°50'714.1
2017-Oct-13 12:00N 39°16' W 009°49'4368.7
2017-Oct-13 12:00N 39°12' W 009°48'4 7.7 080 / 61025.3 0.1 21.615.918.0
2017-Oct-13 11:30N 39°09' W 009°50'713.8
2017-Oct-13 11:00N 39°02' W 009°51'713.9
2017-Oct-13 10:30N 38°55' W 009°51'713.9
2017-Oct-13 10:01N 38°48' W 009°51'714.2
2017-Oct-13 09:30N 38°41' W 009°51'714.2
2017-Oct-13 09:00N 38°34' W 009°48'714.5
2017-Oct-13 08:30N 38°27' W 009°45'815.4
2017-Oct-13 08:00N 38°20' W 009°42'816.2
2017-Oct-13 07:30N 38°12' W 009°40'816.3
2017-Oct-13 07:00N 38°04' W 009°38'815.8
2017-Oct-13 06:30N 37°56' W 009°36'816.0
2017-Oct-13 06:00N 37°48' W 009°34'816.4
2017-Oct-13 05:30N 37°40' W 009°33'916.3
2017-Oct-13 04:57N 37°31' W 009°30'716.1
2017-Oct-13 04:30N 37°24' W 009°28'816.2
2017-Oct-13 04:00N 37°16' W 009°26'816.6
2017-Oct-13 03:30N 37°08' W 009°24'816.1
2017-Oct-13 03:00N 37°00' W 009°23'815.9
2017-Oct-13 02:30N 36°53' W 009°21'815.9
2017-Oct-13 02:00N 36°47' W 009°13'815.5
2017-Oct-13 01:28N 36°44' W 009°04'1015.8
2017-Oct-13 00:52N 36°41' W 008°53'1015.7
2017-Oct-13 00:15N 36°37' W 008°41'417.4
2017-Oct-13 00:00N 36°36' W 008°36'815.4 360 / 161022.6 5.4 20.317.522.0
2017-Oct-12 23:28N 36°33' W 008°27'1215.8
2017-Oct-12 22:44N 36°30' W 008°13'515.8
2017-Oct-12 22:25N 36°29' W 008°07'  

Dump ship's entire track history